Time;durP1;ratioP1;P1;durP2;ratioP2;P2;SDS_P1;SDS_P2;PMS_P1;PMS_P2;Temp;Humidity;BMP_temperature;BMP_pressure;BME280_temperature;BME280_humidity;BME280_pressure;Samples;Min_cycle;Max_cycle;Signal;HPM_P1;HPM_P2
2021/12/15 00:02:51;;;;;;;;;;;;;;;-1.93;100.00;101602.19;5595224;31;33830;-82
2021/12/15 00:05:56;;;;;;;;;;;;;;;-1.99;100.00;101602.31;5594729;31;33889;-82
2021/12/15 00:09:00;;;;;;;;;;;;;;;-1.99;100.00;101597.13;5595336;31;33607;-82
2021/12/15 00:12:05;;;;;;;;;;;;;;;-2.02;100.00;101594.59;5596310;31;33652;-82
2021/12/15 00:15:10;;;;;;;;;;;;;;;-1.94;100.00;101590.09;5597876;31;34354;-82
2021/12/15 00:18:13;;;;;;;;;;;;;;;-1.91;100.00;101590.06;5597184;31;33720;-82
2021/12/15 00:21:20;;;;;;;;;;;;;;;-1.91;100.00;101587.47;5596835;31;34193;-82
2021/12/15 00:24:24;;;;;;;;;;;;;;;-1.82;100.00;101594.22;5597057;31;33770;-82
2021/12/15 00:27:29;;;;;;;;;;;;;;;-1.86;100.00;101596.00;5596539;31;34603;-82
2021/12/15 00:30:32;;;;;;;;;;;;;;;-1.89;100.00;101593.47;5597413;31;33613;-82
2021/12/15 00:33:39;;;;;;;;;;;;;;;-1.86;100.00;101597.75;5597619;31;33625;-82
2021/12/15 00:36:44;;;;;;;;;;;;;;;-1.84;100.00;101600.28;5597003;31;35882;-83
2021/12/15 00:39:47;;;;;;;;;;;;;;;-1.81;100.00;101595.94;5596288;31;33555;-83
2021/12/15 00:42:52;;;;;;;;;;;;;;;-1.80;100.00;101607.16;5596946;31;33422;-83
2021/12/15 00:45:55;;;;;;;;;;;;;;;-1.83;100.00;101599.41;5596909;31;33520;-83
2021/12/15 00:49:00;;;;;;;;;;;;;;;-1.86;100.00;101608.97;5596174;31;32825;-83
2021/12/15 00:52:03;;;;;;;;;;;;;;;-1.84;100.00;101605.47;5596556;31;33795;-83
2021/12/15 00:55:12;;;;;;;;;;;;;;;-1.83;100.00;101612.38;5596956;31;34220;-83
2021/12/15 00:58:14;;;;;;;;;;;;;;;-1.72;100.00;101615.63;5596510;31;33921;-83
2021/12/15 01:01:17;;;;;;;;;;;;;;;-1.71;100.00;101618.22;5596848;31;33214;-83
2021/12/15 01:04:24;;;;;;;;;;;;;;;-1.80;100.00;101622.72;5596856;31;34212;-82
2021/12/15 01:07:31;;;;;;;;;;;;;;;-1.84;100.00;101621.03;5596646;31;34381;-82
2021/12/15 01:10:54;;;;;;;;;;;;;;;-1.91;100.00;101626.37;5596179;31;34333;-82
2021/12/15 01:20:49;;;;;;;;;;;;;;;-2.01;100.00;101627.41;5595315;31;34392;-82
2021/12/15 01:23:54;;;;;;;;;;;;;;;-1.97;100.00;101631.66;5595319;31;33558;-82
2021/12/15 01:27:06;;;;;;;;;;;;;;;-1.92;100.00;101619.47;5595740;31;34416;-82
2021/12/15 01:30:10;;;;;;;;;;;;;;;-1.98;100.00;101624.78;5596077;31;33927;-82
2021/12/15 01:33:14;;;;;;;;;;;;;;;-2.02;100.00;101613.59;5596591;31;33153;-82
2021/12/15 01:36:17;;;;;;;;;;;;;;;-1.94;100.00;101615.19;5597926;31;33588;-82
2021/12/15 01:39:22;;;;;;;;;;;;;;;-1.90;100.00;101609.91;5596439;31;33370;-82
2021/12/15 01:42:26;;;;;;;;;;;;;;;-1.93;100.00;101606.53;5596538;31;33582;-82
2021/12/15 01:49:00;;;;;;;;;;;;;;;-2.08;100.00;101625.81;5595872;31;34212;-82
2021/12/15 01:52:09;;;;;;;;;;;;;;;-2.09;100.00;101622.38;5597718;31;33413;-82
2021/12/15 01:55:14;;;;;;;;;;;;;;;-2.17;100.00;101624.25;5596724;31;34133;-82
2021/12/15 01:58:21;;;;;;;;;;;;;;;-2.26;100.00;101620.06;5597063;31;34201;-82
2021/12/15 02:01:24;;;;;;;;;;;;;;;-2.35;100.00;101622.81;5598482;31;34328;-82
2021/12/15 02:04:28;;;;;;;;;;;;;;;-2.43;100.00;101632.47;5596237;31;32840;-82
2021/12/15 02:07:31;;;;;;;;;;;;;;;-2.48;100.00;101622.19;5595597;31;34111;-82
2021/12/15 02:10:40;;;;;;;;;;;;;;;-2.50;100.00;101621.34;5595846;31;33511;-82
2021/12/15 02:13:43;;;;;;;;;;;;;;;-2.51;100.00;101614.44;5597138;31;33425;-82
2021/12/15 02:16:46;;;;;;;;;;;;;;;-2.50;100.00;101614.41;5595493;31;33531;-82
2021/12/15 02:19:54;;;;;;;;;;;;;;;-2.46;100.00;101616.97;5595636;31;33939;-82
2021/12/15 02:22:57;;;;;;;;;;;;;;;-2.45;100.00;101603.13;5596006;31;33508;-82
2021/12/15 02:26:04;;;;;;;;;;;;;;;-2.45;100.00;101608.31;5595729;31;33768;-82
2021/12/15 02:29:14;;;;;;;;;;;;;;;-2.39;100.00;101613.37;5596141;31;33813;-82
2021/12/15 02:39:07;;;;;;;;;;;;;;;-2.22;100.00;101621.75;5585851;31;33573;-82
2021/12/15 02:42:12;;;;;;;;;;;;;;;-2.30;100.00;101621.00;5596684;31;34261;-82
2021/12/15 02:45:26;;;;;;;;;;;;;;;-2.39;100.00;101623.75;5595567;31;33677;-82
2021/12/15 02:48:30;;;;;;;;;;;;;;;-2.51;100.00;101619.63;5595296;31;33452;-82
2021/12/15 02:51:34;;;;;;;;;;;;;;;-2.60;100.00;101605.06;5595199;31;34156;-82
2021/12/15 02:54:36;;;;;;;;;;;;;;;-2.69;100.00;101603.47;5595308;31;33826;-82
2021/12/15 02:57:39;;;;;;;;;;;;;;;-2.77;100.00;101614.88;5596314;31;34806;-82
2021/12/15 03:01:00;;;;;;;;;;;;;;;-2.88;100.00;101615.88;5595619;31;33587;-82
2021/12/15 03:04:26;;;;;;;;;;;;;;;-2.94;100.00;101618.53;5597181;31;33992;-82
2021/12/15 03:07:37;;;;;;;;;;;;;;;-3.01;100.00;101616.94;5595863;31;34116;-82
2021/12/15 03:17:24;;;;;;;;;;;;;;;-3.17;100.00;101599.00;5595777;31;33350;-82
2021/12/15 03:20:42;;;;;;;;;;;;;;;-3.26;100.00;101589.63;5594392;31;33731;-82
2021/12/15 03:23:50;;;;;;;;;;;;;;;-3.31;100.00;101586.25;5594946;31;34401;-82
2021/12/15 03:27:01;;;;;;;;;;;;;;;-3.33;100.00;101587.16;5594512;31;33697;-82
2021/12/15 03:33:36;;;;;;;;;;;;;;;-3.39;100.00;101582.94;5594601;31;33725;-82
2021/12/15 03:40:06;;;;;;;;;;;;;;;-3.51;100.00;101589.09;5594911;31;33662;-82
2021/12/15 03:43:11;;;;;;;;;;;;;;;-3.47;100.00;101584.75;5594581;31;34094;-82
2021/12/15 03:46:15;;;;;;;;;;;;;;;-3.45;100.00;101586.44;5595171;31;33334;-83
2021/12/15 03:49:17;;;;;;;;;;;;;;;-3.46;100.00;101602.84;5597042;31;33682;-83
2021/12/15 03:52:21;;;;;;;;;;;;;;;-3.49;100.00;101597.72;5597111;31;34177;-83
2021/12/15 03:55:30;;;;;;;;;;;;;;;-3.50;100.00;101601.16;5596993;31;33779;-83
2021/12/15 03:58:33;;;;;;;;;;;;;;;-3.53;100.00;101588.25;5597396;31;33940;-83
2021/12/15 04:01:36;;;;;;;;;;;;;;;-3.52;100.00;101592.56;5596668;31;33425;-83
2021/12/15 04:04:39;;;;;;;;;;;;;;;-3.53;100.00;101590.84;5598152;31;33381;-83
2021/12/15 04:07:42;;;;;;;;;;;;;;;-3.51;100.00;101594.28;5597709;31;33110;-83
2021/12/15 04:10:45;;;;;;;;;;;;;;;-3.46;100.00;101587.31;5599313;31;33680;-83
2021/12/15 04:13:49;;;;;;;;;;;;;;;-3.32;100.00;101604.41;5597383;31;33633;-82
2021/12/15 04:17:06;;;;;;;;;;;;;;;-3.25;100.00;101600.84;5596434;31;34261;-82
2021/12/15 04:20:13;;;;;;;;;;;;;;;-3.18;100.00;101607.66;5599227;31;33859;-82
2021/12/15 04:23:20;;;;;;;;;;;;;;;-3.07;100.00;101598.88;5601826;31;34754;-82
2021/12/15 04:26:23;;;;;;;;;;;;;;;-2.98;100.00;101604.78;5600590;31;33654;-83
2021/12/15 04:29:29;;;;;;;;;;;;;;;-2.87;100.00;101596.84;5602864;31;33591;-83
2021/12/15 04:32:37;;;;;;;;;;;;;;;-2.80;100.00;101602.78;5599906;31;34736;-83
2021/12/15 04:35:41;;;;;;;;;;;;;;;-2.63;100.00;101618.06;5601901;31;34055;-83
2021/12/15 04:38:44;;;;;;;;;;;;;;;-2.59;100.00;101626.69;5600970;31;34787;-83
2021/12/15 04:41:49;;;;;;;;;;;;;;;-2.56;100.00;101624.88;5597295;31;34162;-82
2021/12/15 04:44:56;;;;;;;;;;;;;;;-2.50;100.00;101621.34;5596984;31;33801;-82
2021/12/15 04:47:59;;;;;;;;;;;;;;;-2.39;100.00;101623.75;5596279;31;34133;-82
2021/12/15 04:51:01;;;;;;;;;;;;;;;-2.35;100.00;101630.59;5595784;31;33658;-82
2021/12/15 04:54:05;;;;;;;;;;;;;;;-2.32;100.00;101635.75;5596712;31;33686;-82
2021/12/15 04:57:08;;;;;;;;;;;;;;;-2.32;100.00;101640.94;5596953;31;34069;-82
2021/12/15 05:00:13;;;;;;;;;;;;;;;-2.28;100.00;101642.56;5597114;31;33091;-83
2021/12/15 05:03:16;;;;;;;;;;;;;;;-2.24;100.00;101633.87;5597825;31;33488;-83
2021/12/15 05:06:19;;;;;;;;;;;;;;;-2.18;100.00;101638.94;5596428;31;34015;-83
2021/12/15 05:09:24;;;;;;;;;;;;;;;-2.06;100.00;101652.56;5595930;31;33478;-83
2021/12/15 05:12:28;;;;;;;;;;;;;;;-2.09;100.00;101655.25;5596498;31;33938;-83
2021/12/15 05:15:30;;;;;;;;;;;;;;;-2.05;100.00;101659.47;5597170;31;33525;-83
2021/12/15 05:18:43;;;;;;;;;;;;;;;-2.10;100.00;101666.50;5596542;31;32440;-83
2021/12/15 05:21:45;;;;;;;;;;;;;;;-2.03;100.00;101662.91;5595827;31;33906;-83
2021/12/15 05:24:51;;;;;;;;;;;;;;;-1.98;100.00;101655.91;5596673;31;33675;-83
2021/12/15 05:28:08;;;;;;;;;;;;;;;-1.96;100.00;101672.28;5597115;31;32477;-83
2021/12/15 05:31:11;;;;;;;;;;;;;;;-2.03;100.00;101675.88;5595804;31;34661;-83
2021/12/15 05:34:13;;;;;;;;;;;;;;;-1.86;100.00;101676.41;5596882;31;33526;-83
2021/12/15 05:37:18;;;;;;;;;;;;;;;-1.93;100.00;101674.81;5596384;31;33616;-82
2021/12/15 05:40:20;;;;;;;;;;;;;;;-2.06;100.00;101681.97;5597011;31;33404;-82
2021/12/15 05:43:23;;;;;;;;;;;;;;;-1.93;100.00;101687.78;5595857;31;33145;-83
2021/12/15 05:46:26;;;;;;;;;;;;;;;-1.96;100.00;101690.44;5596731;31;33827;-84
2021/12/15 05:49:31;;;;;;;;;;;;;;;-1.95;100.00;101689.56;5596252;31;33413;-84
2021/12/15 05:52:33;;;;;;;;;;;;;;;-1.95;100.00;101692.16;5596743;31;33616;-83
2021/12/15 05:55:37;;;;;;;;;;;;;;;-1.93;100.00;101695.56;5596355;31;33468;-83
2021/12/15 05:58:40;;;;;;;;;;;;;;;-1.87;100.00;101703.25;5596924;31;33634;-84
2021/12/15 06:01:44;;;;;;;;;;;;;;;-1.84;100.00;101711.84;5595757;31;33338;-84
2021/12/15 06:04:47;;;;;;;;;;;;;;;-1.73;100.00;101717.72;5596136;31;33591;-83
2021/12/15 06:07:49;;;;;;;;;;;;;;;-1.66;100.00;101718.47;5594847;31;33665;-83
2021/12/15 06:10:52;;;;;;;;;;;;;;;-1.80;100.00;101726.50;5595293;31;34276;-84
2021/12/15 06:13:56;;;;;;;;;;;;;;;-1.93;100.00;101734.47;5596205;31;33438;-83
2021/12/15 06:17:06;;;;;;;;;;;;;;;-2.19;100.00;101740.94;5595536;31;33003;-83
2021/12/15 06:20:09;;;;;;;;;;;;;;;-2.29;100.00;101736.78;5595317;31;33150;-83
2021/12/15 06:23:20;;;;;;;;;;;;;;;-2.26;100.00;101733.31;5595882;31;33335;-83
2021/12/15 06:26:23;;;;;;;;;;;;;;;-2.20;100.00;101734.06;5596442;31;34225;-83
2021/12/15 06:29:26;;;;;;;;;;;;;;;-2.21;100.00;101736.66;5596034;31;34121;-84
2021/12/15 06:32:28;;;;;;;;;;;;;;;-2.22;100.00;101730.62;5595339;31;33512;-83
2021/12/15 06:35:32;;;;;;;;;;;;;;;-2.05;100.00;101737.28;5596010;31;33567;-83
2021/12/15 06:38:37;;;;;;;;;;;;;;;-2.06;100.00;101739.03;5594567;31;34690;-82
2021/12/15 06:41:42;;;;;;;;;;;;;;;-2.14;100.00;101745.22;5595493;31;33977;-83
2021/12/15 06:44:46;;;;;;;;;;;;;;;-2.23;100.00;101752.25;5595635;31;33373;-83
2021/12/15 07:01:03;;;;;;;;;;;;;;;-1.82;100.00;101759.37;5595007;31;33498;-83
2021/12/15 07:04:06;;;;;;;;;;;;;;;-1.83;100.00;101763.72;5596207;31;33562;-83
2021/12/15 07:07:11;;;;;;;;;;;;;;;-2.03;100.00;101761.47;5593658;31;33416;-83
2021/12/15 07:10:16;;;;;;;;;;;;;;;-2.00;100.00;101761.41;5595032;31;34852;-83
2021/12/15 07:13:19;;;;;;;;;;;;;;;-1.98;100.00;101751.87;5594774;31;33460;-83
2021/12/15 07:16:23;;;;;;;;;;;;;;;-1.89;100.00;101753.44;5600376;31;33262;-84
2021/12/15 07:19:44;;;;;;;;;;;;;;;-1.83;100.00;101757.66;5594934;31;34097;-83
2021/12/15 07:22:50;;;;;;;;;;;;;;;-2.00;100.00;101753.62;5594342;31;33715;-83
2021/12/15 07:25:53;;;;;;;;;;;;;;;-1.80;100.00;101768.00;5594552;31;33345;-83
2021/12/15 07:28:55;;;;;;;;;;;;;;;-1.78;100.00;101753.28;5594840;31;33512;-83
2021/12/15 07:31:58;;;;;;;;;;;;;;;-1.70;100.00;101751.41;5594423;31;33540;-83
2021/12/15 07:35:01;;;;;;;;;;;;;;;-1.69;100.00;101753.13;5594381;31;33933;-83
2021/12/15 07:38:05;;;;;;;;;;;;;;;-1.50;100.00;101770.94;5593562;31;34188;-82
2021/12/15 07:41:17;;;;;;;;;;;;;;;-1.38;100.00;101775.91;5594100;31;33855;-83
2021/12/15 07:44:21;;;;;;;;;;;;;;;-1.41;100.00;101769.06;5594149;31;34091;-82
2021/12/15 07:47:29;;;;;;;;;;;;;;;-1.33;100.00;101781.91;5594433;31;33685;-82
2021/12/15 07:50:33;;;;;;;;;;;;;;;-1.38;100.00;101783.72;5594142;31;34177;-83
2021/12/15 07:53:37;;;;;;;;;;;;;;;-1.48;100.00;101789.94;5596402;31;33645;-82
2021/12/15 07:56:41;;;;;;;;;;;;;;;-1.52;100.00;101793.50;5594873;31;33558;-83
2021/12/15 07:59:44;;;;;;;;;;;;;;;-1.48;100.00;101792.53;5594586;31;33903;-83
2021/12/15 08:02:50;;;;;;;;;;;;;;;-1.35;100.00;101801.00;5596395;31;34182;-83
2021/12/15 08:05:54;;;;;;;;;;;;;;;-1.39;100.00;101805.34;5595001;31;34150;-83
2021/12/15 08:08:57;;;;;;;;;;;;;;;-1.25;100.00;101807.72;5595098;31;33934;-83
2021/12/15 08:11:59;;;;;;;;;;;;;;;-1.10;100.00;101807.44;5593036;31;34127;-82
2021/12/15 08:15:07;;;;;;;;;;;;;;;-0.97;100.00;101810.66;5593348;31;33939;-82
2021/12/15 08:18:11;;;;;;;;;;;;;;;-0.84;100.00;101820.78;5593487;31;33890;-82
2021/12/15 08:21:13;;;;;;;;;;;;;;;-0.71;100.00;101824.03;5595137;31;33772;-82
2021/12/15 08:24:26;;;;;;;;;;;;;;;-0.94;100.00;101818.38;5595541;31;33580;-82
2021/12/15 08:27:29;;;;;;;;;;;;;;;-0.81;100.00;101820.75;5593755;31;33681;-82
2021/12/15 08:30:32;;;;;;;;;;;;;;;-0.65;100.00;101835.16;5593032;31;33262;-82
2021/12/15 08:33:34;;;;;;;;;;;;;;;-0.60;100.00;101836.78;5595761;31;34367;-82
2021/12/15 08:36:40;;;;;;;;;;;;;;;-0.38;100.00;101843.25;5597988;31;34397;-82
2021/12/15 08:39:44;;;;;;;;;;;;;;;-0.58;100.00;101843.69;5596605;31;34279;-82
2021/12/15 08:42:49;;;;;;;;;;;;;;;-0.74;100.00;101850.94;5596975;31;33567;-82
2021/12/15 08:45:57;;;;;;;;;;;;;;;-0.43;100.00;101852.91;5596563;31;33891;-82
2021/12/15 08:49:00;;;;;;;;;;;;;;;-0.33;100.00;101854.41;5597885;31;33531;-82
2021/12/15 08:52:04;;;;;;;;;;;;;;;-0.30;100.00;101853.50;5596179;31;34111;-82
2021/12/15 08:55:09;;;;;;;;;;;;;;;-0.38;100.00;101853.66;5597355;31;33635;-82
2021/12/15 08:58:13;;;;;;;;;;;;;;;-0.43;100.00;101855.50;5595570;31;34123;-82
2021/12/15 09:01:16;;;;;;;;;;;;;;;-0.27;100.00;101855.16;5595951;31;33577;-82
2021/12/15 09:04:19;;;;;;;;;;;;;;;-0.03;100.00;101851.19;5597652;31;33757;-82
2021/12/15 09:07:21;;;;;;;;;;;;;;;0.12;100.00;101847.37;5596159;31;33373;-82
2021/12/15 09:10:25;;;;;;;;;;;;;;;0.11;100.00;101845.66;5596284;31;33740;-82
2021/12/15 09:13:30;;;;;;;;;;;;;;;0.09;100.00;101845.69;5596176;31;34354;-82
2021/12/15 09:16:35;;;;;;;;;;;;;;;0.20;100.00;101845.44;5595311;31;33356;-82
2021/12/15 09:19:38;;;;;;;;;;;;;;;0.17;100.00;101845.50;5595966;31;33422;-82
2021/12/15 09:22:41;;;;;;;;;;;;;;;0.19;100.00;101848.91;5597587;31;33533;-82
2021/12/15 09:25:45;;;;;;;;;;;;;;;0.34;100.00;101841.66;5596716;31;33569;-82
2021/12/15 09:28:48;;;;;;;;;;;;;;;0.55;100.00;101846.31;5595606;31;33585;-82
2021/12/15 09:31:51;;;;;;;;;;;;;;;0.53;100.00;101840.28;5595529;31;33535;-82
2021/12/15 09:34:54;;;;;;;;;;;;;;;0.74;100.00;101845.84;5599471;31;33576;-82
2021/12/15 09:38:05;;;;;;;;;;;;;;;0.73;100.00;101844.16;5596444;31;33172;-82
2021/12/15 09:41:09;;;;;;;;;;;;;;;0.68;100.00;101840.81;5595811;31;33936;-82
2021/12/15 09:44:17;;;;;;;;;;;;;;;0.49;100.00;101840.41;5596549;31;34086;-83
2021/12/15 09:47:39;;;;;;;;;;;;;;;0.51;100.00;101834.25;5597367;31;33740;-82
2021/12/15 09:57:31;;;;;;;;;;;;;;;0.40;100.00;101841.47;5596004;31;33809;-82
2021/12/15 10:20:26;;;;;;;;;;;;;;;1.39;100.00;101842.34;5595809;31;34102;-82
2021/12/15 10:23:40;;;;;;;;;;;;;;;1.15;100.00;101843.03;5596989;31;34267;-82
2021/12/15 10:26:57;;;;;;;;;;;;;;;1.15;100.00;101838.69;5595343;31;33761;-84
2021/12/15 10:30:22;;;;;;;;;;;;;;;0.98;100.00;101844.34;5596150;31;33370;-82
2021/12/15 10:33:30;;;;;;;;;;;;;;;1.17;100.00;101836.87;5584116;31;34089;-82
2021/12/15 10:36:33;;;;;;;;;;;;;;;1.40;100.00;101840.59;5595938;31;33673;-83
2021/12/15 10:39:36;;;;;;;;;;;;;;;1.40;100.00;101851.03;5596695;31;32969;-82
2021/12/15 10:42:38;;;;;;;;;;;;;;;1.30;100.00;101844.34;5595519;31;33213;-82
2021/12/15 10:45:43;;;;;;;;;;;;;;;1.56;100.00;101847.97;5594969;31;33355;-82
2021/12/15 10:48:56;;;;;;;;;;;;;;;1.67;100.00;101840.66;5595195;31;33691;-82
2021/12/15 10:52:07;;;;;;;;;;;;;;;1.58;100.00;101844.41;5596899;31;33931;-84
2021/12/15 10:55:09;;;;;;;;;;;;;;;1.48;100.00;101846.44;5594600;31;33720;-82
2021/12/15 10:58:32;;;;;;;;;;;;;;;1.57;100.00;101847.06;5596910;31;33698;-83
2021/12/15 11:01:55;;;;;;;;;;;;;;;1.48;100.00;101841.22;5594849;31;33563;-82
2021/12/15 11:05:02;;;;;;;;;;;;;;;1.70;100.00;101844.03;5595788;31;33763;-83
2021/12/15 11:08:05;;;;;;;;;;;;;;;1.76;100.00;101832.56;5597414;31;33367;-83
2021/12/15 11:11:22;;;;;;;;;;;;;;;2.05;100.00;101841.25;5596813;31;33843;-83
2021/12/15 11:14:36;;;;;;;;;;;;;;;2.25;100.00;101845.00;5596956;31;33386;-83
2021/12/15 11:17:40;;;;;;;;;;;;;;;2.45;100.00;101847.81;5595467;31;33758;-83
2021/12/15 11:20:54;;;;;;;;;;;;;;;2.07;100.00;101849.91;5595533;31;33818;-82
2021/12/15 11:23:56;;;;;;;;;;;;;;;2.11;100.00;101841.06;5595202;31;33799;-82
2021/12/15 11:27:15;;;;;;;;;;;;;;;2.42;100.00;101834.84;5595520;31;33220;-83
2021/12/15 11:30:23;;;;;;;;;;;;;;;2.57;100.00;101832.63;5594784;31;33668;-83
2021/12/15 11:33:33;;;;;;;;;;;;;;;2.49;100.00;101839.87;5595065;31;33124;-83
2021/12/15 11:36:43;;;;;;;;;;;;;;;2.14;100.00;101833.13;5596051;31;33484;-83
2021/12/15 11:39:46;;;;;;;;;;;;;;;1.88;100.00;101833.09;5595002;31;34054;-83
2021/12/15 11:42:48;;;;;;;;;;;;;;;1.60;100.00;101826.09;5594179;31;33737;-82
2021/12/15 11:45:52;;;;;;;;;;;;;;;1.48;100.00;101820.34;5594984;31;33599;-84
2021/12/15 11:48:54;;;;;;;;;;;;;;;1.65;100.00;101826.81;5594435;31;33849;-83
2021/12/15 11:52:05;;;;;;;;;;;;;;;1.97;100.00;101819.78;5594012;31;33872;-83
2021/12/15 11:55:20;;;;;;;;;;;;;;;2.04;100.00;101816.06;5594122;31;33955;-83
2021/12/15 11:58:30;;;;;;;;;;;;;;;2.28;100.00;101818.78;5593991;31;33624;-83
2021/12/15 12:01:41;;;;;;;;;;;;;;;2.28;100.00;101813.56;5594967;31;33428;-82
2021/12/15 12:04:46;;;;;;;;;;;;;;;2.37;100.00;101813.25;5594602;31;34413;-83
2021/12/15 12:07:57;;;;;;;;;;;;;;;2.29;100.00;101815.28;5596533;31;33743;-83
2021/12/15 12:11:14;;;;;;;;;;;;;;;2.19;100.00;101817.31;5596948;31;34068;-83
2021/12/15 12:14:37;;;;;;;;;;;;;;;2.15;100.00;101808.72;5597144;31;33612;-83
2021/12/15 12:17:39;;;;;;;;;;;;;;;2.27;100.00;101811.84;5596250;31;33341;-83
2021/12/15 12:20:48;;;;;;;;;;;;;;;2.62;100.00;101812.44;5596659;31;33470;-83
2021/12/15 12:23:52;;;;;;;;;;;;;;;2.30;100.00;101803.91;5597027;31;33994;-83
2021/12/15 12:26:54;;;;;;;;;;;;;;;2.11;100.00;101807.13;5597247;31;34043;-83
2021/12/15 12:29:58;;;;;;;;;;;;;;;1.84;100.00;101811.44;5596795;31;34367;-83
2021/12/15 12:33:01;;;;;;;;;;;;;;;1.80;100.00;101808.09;5596702;31;33795;-82
2021/12/15 12:36:17;;;;;;;;;;;;;;;1.66;100.00;101810.25;5602486;31;33584;-82
2021/12/15 12:39:22;;;;;;;;;;;;;;;1.61;100.00;101812.16;5598045;31;33287;-83
2021/12/15 12:42:32;;;;;;;;;;;;;;;1.69;100.00;101810.19;5596001;31;33567;-84
2021/12/15 12:45:38;;;;;;;;;;;;;;;1.68;100.00;101808.47;5596372;31;34134;-83
2021/12/15 12:59:27;;;;;;;;;;;;;;;1.54;100.00;101799.28;5596683;31;34500;-84
2021/12/15 13:02:56;;;;;;;;;;;;;;;1.78;100.00;101803.81;5587670;31;33745;-83
2021/12/15 13:05:56;;;;;;;;;;;;;;;2.03;100.00;101798.69;5597236;31;33956;-84
2021/12/15 13:09:15;;;;;;;;;;;;;;;2.14;100.00;101790.47;5595847;31;33426;-83
2021/12/15 13:12:30;;;;;;;;;;;;;;;2.21;100.00;101783.31;5596843;31;34100;-84
2021/12/15 13:15:34;;;;;;;;;;;;;;;2.10;100.00;101776.69;5597010;31;33687;-83
2021/12/15 13:18:48;;;;;;;;;;;;;;;2.21;100.00;101771.12;5596357;31;33698;-83
2021/12/15 13:22:01;;;;;;;;;;;;;;;2.02;100.00;101776.09;5596344;31;33470;-83
2021/12/15 13:28:50;;;;;;;;;;;;;;;1.80;100.00;101776.78;5596277;31;33865;-84
2021/12/15 13:31:59;;;;;;;;;;;;;;;1.67;100.00;101770.22;5596340;31;34503;-82
2021/12/15 13:35:03;;;;;;;;;;;;;;;1.64;100.00;101773.78;5597365;31;33755;-83
2021/12/15 13:38:21;;;;;;;;;;;;;;;1.50;100.00;101775.97;5596897;31;33259;-83
2021/12/15 13:41:40;;;;;;;;;;;;;;;1.50;100.00;101779.44;5595717;31;33391;-82
2021/12/15 13:44:47;;;;;;;;;;;;;;;1.53;100.00;101781.94;5596689;31;33509;-83
2021/12/15 13:47:50;;;;;;;;;;;;;;;1.55;100.00;101797.56;5597757;31;33412;-83
2021/12/15 13:50:52;;;;;;;;;;;;;;;1.52;100.00;101788.03;5596471;31;33123;-83
2021/12/15 13:53:57;;;;;;;;;;;;;;;1.50;100.00;101787.25;5595884;31;33273;-82
2021/12/15 13:56:59;;;;;;;;;;;;;;;1.63;100.00;101795.56;5594898;31;33559;-82
2021/12/15 14:00:10;;;;;;;;;;;;;;;1.52;100.00;101790.66;5595527;31;33676;-82
2021/12/15 14:03:21;;;;;;;;;;;;;;;1.44;100.00;101791.81;5595544;31;34294;-83
2021/12/15 14:06:24;;;;;;;;;;;;;;;1.38;100.00;101798.06;5595789;31;34080;-83
2021/12/15 14:09:30;;;;;;;;;;;;;;;1.34;100.00;101791.22;5594816;31;34558;-82
2021/12/15 14:12:45;;;;;;;;;;;;;;;1.26;100.00;101801.03;5596163;31;33952;-82
2021/12/15 14:15:48;;;;;;;;;;;;;;;1.20;100.00;101794.22;5596404;31;33880;-82
2021/12/15 14:18:51;;;;;;;;;;;;;;;1.18;100.00;101809.87;5595461;31;33538;-83
2021/12/15 14:22:05;;;;;;;;;;;;;;;1.28;100.00;101814.88;5596075;31;33723;-83
2021/12/15 14:25:09;;;;;;;;;;;;;;;1.33;100.00;101816.44;5595899;31;34134;-83
2021/12/15 14:28:17;;;;;;;;;;;;;;;1.43;100.00;101809.19;5596344;31;33994;-84
2021/12/15 14:31:24;;;;;;;;;;;;;;;1.61;100.00;101807.78;5594838;31;33779;-83
2021/12/15 14:34:29;;;;;;;;;;;;;;;1.76;100.00;101811.69;5595611;31;33638;-83
2021/12/15 14:37:32;;;;;;;;;;;;;;;1.90;100.00;101802.56;5596305;31;33641;-83
2021/12/15 14:40:37;;;;;;;;;;;;;;;1.73;100.00;101809.19;5595412;31;33895;-83
2021/12/15 14:43:46;;;;;;;;;;;;;;;1.50;100.00;101802.91;5595924;31;33586;-83
2021/12/15 14:46:55;;;;;;;;;;;;;;;1.22;100.00;101808.91;5595121;31;34008;-83
2021/12/15 14:50:05;;;;;;;;;;;;;;;1.16;100.00;101806.50;5595435;31;33854;-83
2021/12/15 14:53:08;;;;;;;;;;;;;;;1.26;100.00;101811.44;5595567;31;33893;-84
2021/12/15 14:56:12;;;;;;;;;;;;;;;1.18;100.00;101809.87;5595075;31;34478;-83
2021/12/15 14:59:19;;;;;;;;;;;;;;;1.21;100.00;101820.25;5594726;31;33172;-83
2021/12/15 15:02:25;;;;;;;;;;;;;;;1.04;100.00;101812.06;5596426;31;33491;-83
2021/12/15 15:05:35;;;;;;;;;;;;;;;0.83;100.00;101809.16;5594740;31;33730;-83
2021/12/15 15:08:44;;;;;;;;;;;;;;;0.71;100.00;101804.25;5595776;31;33363;-83
2021/12/15 15:12:06;;;;;;;;;;;;;;;0.73;100.00;101807.69;5594170;31;33952;-83
2021/12/15 15:15:12;;;;;;;;;;;;;;;0.70;100.00;101808.59;5595262;31;33963;-83
2021/12/15 15:18:28;;;;;;;;;;;;;;;0.78;100.00;101797.97;5594288;31;34870;-83
2021/12/15 15:21:32;;;;;;;;;;;;;;;1.15;100.00;101794.38;5597593;31;33926;-83
2021/12/15 15:24:34;;;;;;;;;;;;;;;1.00;100.00;101794.78;5595802;31;33927;-83
2021/12/15 15:27:39;;;;;;;;;;;;;;;0.84;100.00;101795.22;5595446;31;34101;-83
2021/12/15 15:30:48;;;;;;;;;;;;;;;0.79;100.00;101796.25;5596544;31;33482;-83
2021/12/15 15:33:51;;;;;;;;;;;;;;;0.64;100.00;101800.09;5595240;31;33626;-83
2021/12/15 15:36:54;;;;;;;;;;;;;;;0.55;100.00;101793.37;5593547;31;34502;-83
2021/12/15 15:39:59;;;;;;;;;;;;;;;0.49;100.00;101804.81;5593854;31;33752;-83
2021/12/15 15:43:09;;;;;;;;;;;;;;;0.42;100.00;101805.84;5595293;31;33455;-83
2021/12/15 15:46:13;;;;;;;;;;;;;;;0.29;100.00;101813.97;5596801;31;34463;-83
2021/12/15 15:49:16;;;;;;;;;;;;;;;0.24;100.00;101821.03;5595882;31;34151;-83
2021/12/15 15:52:19;;;;;;;;;;;;;;;0.26;100.00;101827.06;5596425;31;34305;-83
2021/12/15 15:55:23;;;;;;;;;;;;;;;0.31;100.00;101837.37;5595534;31;33762;-83
2021/12/15 15:58:27;;;;;;;;;;;;;;;0.19;100.00;101833.31;5598689;31;33814;-83
2021/12/15 16:01:32;;;;;;;;;;;;;;;0.49;100.00;101830.00;5596989;31;33883;-84
2021/12/15 16:04:37;;;;;;;;;;;;;;;0.50;100.00;101843.00;5596783;31;34112;-83
2021/12/15 16:07:42;;;;;;;;;;;;;;;0.27;100.00;101844.41;5597343;31;34454;-83
2021/12/15 16:10:46;;;;;;;;;;;;;;;0.10;100.00;101851.75;5597546;31;33708;-83
2021/12/15 16:13:52;;;;;;;;;;;;;;;-0.02;100.00;101860.69;5597481;31;33813;-83
2021/12/15 16:17:13;;;;;;;;;;;;;;;0.05;100.00;101861.41;5597005;31;33938;-83
2021/12/15 16:20:22;;;;;;;;;;;;;;;-0.03;100.00;101861.59;5597447;31;33378;-83
2021/12/15 16:23:32;;;;;;;;;;;;;;;-0.05;100.00;101852.97;5597348;31;33258;-83
2021/12/15 16:26:39;;;;;;;;;;;;;;;-0.08;100.00;101850.41;5598121;31;33794;-83
2021/12/15 16:29:43;;;;;;;;;;;;;;;-0.13;100.00;101858.31;5597961;31;33676;-83
2021/12/15 16:32:46;;;;;;;;;;;;;;;-0.07;100.00;101847.78;5597032;31;33554;-83
2021/12/15 16:35:51;;;;;;;;;;;;;;;-0.10;100.00;101853.06;5595470;31;33906;-83
2021/12/15 16:38:55;;;;;;;;;;;;;;;-0.03;100.00;101849.41;5595978;31;33929;-83
2021/12/15 16:41:58;;;;;;;;;;;;;;;-0.07;100.00;101847.78;5596197;31;32695;-83
2021/12/15 16:45:00;;;;;;;;;;;;;;;-0.22;100.00;101842.91;5598084;31;34355;-83
2021/12/15 16:48:24;;;;;;;;;;;;;;;-0.35;100.00;101835.38;5596466;31;33594;-83
2021/12/15 16:51:27;;;;;;;;;;;;;;;-0.41;100.00;101832.94;5596339;31;33230;-83
2021/12/15 16:54:32;;;;;;;;;;;;;;;-0.49;100.00;101848.69;5596586;31;33363;-83
2021/12/15 16:57:36;;;;;;;;;;;;;;;-0.56;100.00;101836.69;5596308;31;33731;-83
2021/12/15 17:00:42;;;;;;;;;;;;;;;-0.60;100.00;101836.78;5597036;31;33003;-83
2021/12/15 17:03:46;;;;;;;;;;;;;;;-0.64;100.00;101836.00;5595621;31;34058;-83
2021/12/15 17:06:52;;;;;;;;;;;;;;;-0.71;100.00;101850.00;5596380;31;34422;-83
2021/12/15 17:09:58;;;;;;;;;;;;;;;-0.70;100.00;101852.56;5595647;31;34746;-83
2021/12/15 17:13:13;;;;;;;;;;;;;;;-0.69;100.00;101851.69;5596453;31;33667;-83
2021/12/15 17:16:33;;;;;;;;;;;;;;;-0.55;100.00;101858.34;5597160;31;34425;-83